Time;durP1;ratioP1;P1;durP2;ratioP2;P2;SDS_P1;SDS_P2;PMS_P1;PMS_P2;Temp;Humidity;BMP_temperature;BMP_pressure;BME280_temperature;BME280_humidity;BME280_pressure;Samples;Min_cycle;Max_cycle;Signal;HPM_P1;HPM_P2
2022/04/30 00:00:31;;;;;;;;;;;;;;;28.76;26.13;101238.91;5059196;28;1909;-31
2022/04/30 00:02:57;;;;;;;;;;;;;;;28.67;25.94;101244.38;5059348;28;1154;-35
2022/04/30 00:05:23;;;;;;;;;;;;;;;28.76;25.86;101244.31;5059117;28;825;-33
2022/04/30 00:07:48;;;;;;;;;;;;;;;28.68;25.92;101226.25;5059392;28;787;-35
2022/04/30 00:10:14;;;;;;;;;;;;;;;28.69;26.23;101241.50;5066986;28;952;-34
2022/04/30 00:12:39;;;;;;;;;;;;;;;28.71;25.93;101234.84;5058985;28;881;-34
2022/04/30 00:15:05;;;;;;;;;;;;;;;28.74;25.92;101236.38;5059026;28;793;-34
2022/04/30 00:17:30;;;;;;;;;;;;;;;28.63;26.05;101239.53;5059208;28;790;-36
2022/04/30 00:19:55;;;;;;;;;;;;;;;28.64;26.16;101225.81;5058830;28;2087;-34
2022/04/30 00:22:21;;;;;;;;;;;;;;;28.63;26.18;101226.81;5058787;28;879;-36
2022/04/30 00:24:46;;;;;;;;;;;;;;;28.62;26.07;101230.53;5067707;28;975;-33
2022/04/30 00:27:11;;;;;;;;;;;;;;;28.54;26.15;101231.47;5059051;28;762;-35
2022/04/30 00:29:37;;;;;;;;;;;;;;;28.53;25.92;101226.22;5058621;28;858;-35
2022/04/30 00:32:02;;;;;;;;;;;;;;;28.40;26.02;101227.66;5058939;28;841;-35
2022/04/30 00:34:28;;;;;;;;;;;;;;;28.47;26.09;101222.38;5065229;28;1553;-32
2022/04/30 00:36:53;;;;;;;;;;;;;;;28.51;26.10;101234.50;5058575;28;814;-34
2022/04/30 00:39:18;;;;;;;;;;;;;;;28.44;26.07;101222.75;5062363;28;1894;-34
2022/04/30 00:41:44;;;;;;;;;;;;;;;28.43;26.28;101221.88;5077790;28;927;-35
2022/04/30 00:44:10;;;;;;;;;;;;;;;28.41;25.95;101223.94;5077456;28;795;-33
2022/04/30 00:46:35;;;;;;;;;;;;;;;28.39;26.12;101226.00;5068797;28;1001;-35
2022/04/30 00:49:01;;;;;;;;;;;;;;;28.38;26.17;101212.66;5065148;28;771;-32
2022/04/30 00:51:27;;;;;;;;;;;;;;;28.42;26.12;101217.50;5058111;28;837;-33
2022/04/30 00:53:52;;;;;;;;;;;;;;;28.35;26.27;101221.94;5059926;28;882;-34
2022/04/30 00:56:20;;;;;;;;;;;;;;;28.38;26.07;101224.28;5063288;28;924;-33
2022/04/30 00:58:45;;;;;;;;;;;;;;;28.39;26.46;101215.16;5044242;28;1902;-34
2022/04/30 01:01:11;;;;;;;;;;;;;;;28.70;26.72;101214.25;5063620;28;1012;-36
2022/04/30 01:03:36;;;;;;;;;;;;;;;29.13;26.25;101212.84;5058003;28;833;-31
2022/04/30 01:06:02;;;;;;;;;;;;;;;29.91;24.85;101214.28;5071622;28;809;-34
2022/04/30 01:08:27;;;;;;;;;;;;;;;29.46;25.56;101208.94;5073401;28;862;-32
2022/04/30 01:11:00;;;;;;;;;;;;;;;29.30;25.35;101212.66;5064974;28;869;-33
2022/04/30 01:13:26;;;;;;;;;;;;;;;29.91;25.12;101221.59;5058167;28;880;-37
2022/04/30 01:15:51;;;;;;;;;;;;;;;29.97;24.85;101222.69;5064983;28;782;-35
2022/04/30 01:18:17;;;;;;;;;;;;;;;29.41;24.99;101212.19;5077662;28;833;-33
2022/04/30 01:20:48;;;;;;;;;;;;;;;29.18;25.89;101213.13;5059021;28;1968;-33
2022/04/30 01:23:13;;;;;;;;;;;;;;;29.37;25.17;101220.88;5074673;28;846;-34
2022/04/30 01:25:38;;;;;;;;;;;;;;;29.41;25.63;101214.06;5068121;28;893;-33
2022/04/30 01:28:04;;;;;;;;;;;;;;;29.83;24.98;101222.53;5057839;28;885;-33
2022/04/30 01:30:29;;;;;;;;;;;;;;;29.56;25.46;101222.19;5039628;28;897;-36
2022/04/30 01:38:22;;;;;;;;;;;;;;;29.73;25.57;101213.88;5067514;28;1922;-35
2022/04/30 01:40:48;;;;;;;;;;;;;;;29.98;24.96;101213.53;5063833;28;806;-34
2022/04/30 01:43:13;;;;;;;;;;;;;;;29.53;24.82;101217.97;5057442;28;837;-34
2022/04/30 01:45:38;;;;;;;;;;;;;;;29.37;25.29;101215.47;5057553;28;866;-34
2022/04/30 01:48:04;;;;;;;;;;;;;;;29.29;25.31;101210.97;5056957;28;830;-34
2022/04/30 01:50:29;;;;;;;;;;;;;;;29.21;25.28;101207.31;5063450;28;1493;-35
2022/04/30 01:52:55;;;;;;;;;;;;;;;29.16;25.40;101200.81;5057133;28;902;-35
2022/04/30 01:55:20;;;;;;;;;;;;;;;29.26;25.04;101205.94;5063592;28;895;-35
2022/04/30 01:57:45;;;;;;;;;;;;;;;29.25;25.23;101207.81;5057643;28;814;-37
2022/04/30 02:00:14;;;;;;;;;;;;;;;29.20;25.20;101202.09;5056831;28;1901;-34
2022/04/30 02:02:43;;;;;;;;;;;;;;;28.99;25.69;101202.84;5057506;28;938;-34
2022/04/30 02:05:08;;;;;;;;;;;;;;;29.01;25.95;101188.06;5062729;28;794;-34
2022/04/30 02:07:34;;;;;;;;;;;;;;;29.10;25.56;101199.66;5038824;28;901;-35
2022/04/30 02:10:00;;;;;;;;;;;;;;;29.35;25.76;101196.69;5064014;28;820;-36
2022/04/30 02:12:26;;;;;;;;;;;;;;;29.18;25.56;101198.72;5057207;28;810;-36
2022/04/30 02:14:54;;;;;;;;;;;;;;;29.11;25.81;101195.09;5039188;28;805;-35
2022/04/30 02:17:20;;;;;;;;;;;;;;;29.16;25.55;101198.91;5056485;28;807;-33
2022/04/30 02:22:30;;;;;;;;;;;;;;;28.99;25.62;101192.84;5071671;28;624;-36
2022/04/30 02:24:56;;;;;;;;;;;;;;;29.03;25.67;101196.03;5049381;28;833;-33
2022/04/30 02:27:22;;;;;;;;;;;;;;;28.87;25.80;101194.28;5056843;28;845;-35
2022/04/30 02:29:47;;;;;;;;;;;;;;;28.87;25.58;101184.31;5062894;28;1447;-32
2022/04/30 02:32:13;;;;;;;;;;;;;;;28.84;25.95;101198.22;5056363;28;838;-35
2022/04/30 02:34:38;;;;;;;;;;;;;;;28.84;25.78;101199.03;5056609;28;814;-31
2022/04/30 02:37:04;;;;;;;;;;;;;;;28.83;25.60;101200.06;5056729;28;810;-35
2022/04/30 02:39:30;;;;;;;;;;;;;;;28.80;25.89;101188.75;5063134;28;1959;-37
2022/04/30 02:41:55;;;;;;;;;;;;;;;28.76;25.95;101201.81;5063069;28;952;-34
2022/04/30 02:44:21;;;;;;;;;;;;;;;28.67;26.17;101200.22;5056529;28;910;-33
2022/04/30 02:46:46;;;;;;;;;;;;;;;28.64;26.35;101204.16;5055558;28;862;-33
2022/04/30 02:49:11;;;;;;;;;;;;;;;28.63;26.29;101201.63;5056588;28;805;-34
2022/04/30 02:51:37;;;;;;;;;;;;;;;28.62;26.44;101192.66;5056720;28;858;-32
2022/04/30 02:54:02;;;;;;;;;;;;;;;28.58;26.43;101199.44;5061156;28;826;-34
2022/04/30 02:56:28;;;;;;;;;;;;;;;28.54;26.26;101193.56;5058224;28;742;-37
2022/04/30 03:01:37;;;;;;;;;;;;;;;28.45;26.56;101181.97;5067543;28;1196;-35
2022/04/30 03:04:02;;;;;;;;;;;;;;;28.50;26.65;101181.41;5056795;28;789;-34
2022/04/30 03:06:28;;;;;;;;;;;;;;;28.56;27.08;101180.69;5047527;28;762;-35
2022/04/30 03:08:54;;;;;;;;;;;;;;;28.98;26.53;101180.31;5062290;28;859;-31
2022/04/30 03:11:19;;;;;;;;;;;;;;;29.98;25.11;101172.88;5039522;28;845;-33
2022/04/30 03:13:44;;;;;;;;;;;;;;;29.27;25.32;101175.09;5056516;28;890;-34
2022/04/30 03:21:47;;;;;;;;;;;;;;;28.88;26.74;101172.44;5059707;28;694;-33
2022/04/30 03:24:13;;;;;;;;;;;;;;;29.36;26.27;101181.28;5059665;28;908;-32
2022/04/30 03:26:38;;;;;;;;;;;;;;;29.63;26.03;101178.94;5062456;28;921;-33
2022/04/30 03:29:04;;;;;;;;;;;;;;;30.19;25.21;101183.72;5075089;28;870;-33
2022/04/30 03:31:30;;;;;;;;;;;;;;;29.64;25.71;101180.59;5073671;28;1159;-30
2022/04/30 03:33:55;;;;;;;;;;;;;;;29.41;25.92;101176.94;5059921;28;842;-36
2022/04/30 03:36:21;;;;;;;;;;;;;;;28.92;27.03;101181.03;5065027;28;782;-35
2022/04/30 03:38:47;;;;;;;;;;;;;;;29.76;26.10;101192.63;5070612;28;1919;-31
2022/04/30 03:41:12;;;;;;;;;;;;;;;28.90;25.58;101191.19;5060929;28;822;-34
2022/04/30 03:43:38;;;;;;;;;;;;;;;28.20;25.51;101190.25;5056234;28;818;-32
2022/04/30 03:46:05;;;;;;;;;;;;;;;28.60;24.80;101205.53;5062159;28;873;-32
2022/04/30 03:48:30;;;;;;;;;;;;;;;29.14;23.78;101209.13;5055922;28;838;-31
2022/04/30 03:50:57;;;;;;;;;;;;;;;27.87;24.27;101212.91;5042040;28;795;-31
2022/04/30 03:53:22;;;;;;;;;;;;;;;24.06;29.94;101198.84;5056197;28;887;-33
2022/04/30 03:55:48;;;;;;;;;;;;;;;24.52;29.18;101212.28;5073942;28;1464;-33
2022/04/30 03:58:13;;;;;;;;;;;;;;;25.12;28.50;101203.69;5069036;28;866;-34
2022/04/30 04:00:38;;;;;;;;;;;;;;;27.17;26.19;101209.09;5058533;28;1972;-29
2022/04/30 04:03:03;;;;;;;;;;;;;;;27.18;25.81;101214.31;5059200;28;815;-29
2022/04/30 04:05:29;;;;;;;;;;;;;;;26.62;26.56;101215.88;5059594;28;905;-29
2022/04/30 04:07:54;;;;;;;;;;;;;;;26.57;26.76;101214.66;5059051;28;809;-32
2022/04/30 04:10:20;;;;;;;;;;;;;;;26.36;26.76;101216.03;5058672;28;1157;-31
2022/04/30 04:12:45;;;;;;;;;;;;;;;26.22;27.34;101215.63;5060630;28;998;-35
2022/04/30 04:17:54;;;;;;;;;;;;;;;26.11;27.62;101214.06;5072277;28;643;-32
2022/04/30 04:20:24;;;;;;;;;;;;;;;26.09;27.75;101228.72;5078387;28;1965;-29
2022/04/30 04:22:49;;;;;;;;;;;;;;;26.13;27.53;101224.69;5064941;28;851;-31
2022/04/30 04:27:59;;;;;;;;;;;;;;;27.49;25.90;101234.31;5058828;28;675;-33
2022/04/30 04:30:25;;;;;;;;;;;;;;;27.96;25.43;101245.31;5059236;28;849;-31
2022/04/30 04:32:50;;;;;;;;;;;;;;;28.29;24.58;101231.59;5058580;28;913;-30
2022/04/30 04:35:16;;;;;;;;;;;;;;;27.13;25.36;101230.19;5062245;28;917;-30
2022/04/30 04:37:42;;;;;;;;;;;;;;;26.74;26.08;101235.25;5063884;28;899;-33
2022/04/30 04:40:08;;;;;;;;;;;;;;;26.64;26.12;101231.88;5065177;28;1966;-34
2022/04/30 04:42:33;;;;;;;;;;;;;;;26.55;26.72;101235.56;5058956;28;841;-30
2022/04/30 04:44:58;;;;;;;;;;;;;;;26.50;26.64;101241.47;5058543;28;849;-34
2022/04/30 04:47:23;;;;;;;;;;;;;;;26.47;26.42;101234.56;5058952;28;861;-32
2022/04/30 04:49:49;;;;;;;;;;;;;;;26.33;27.04;101236.06;5070803;28;834;-32
2022/04/30 04:52:14;;;;;;;;;;;;;;;26.38;26.72;101230.16;5058285;28;884;-32
2022/04/30 04:54:40;;;;;;;;;;;;;;;26.37;26.40;101226.63;5065861;28;893;-32
2022/04/30 04:57:05;;;;;;;;;;;;;;;26.36;26.53;101221.41;5058973;28;800;-29
2022/04/30 04:59:30;;;;;;;;;;;;;;;26.27;26.74;101225.91;5057727;28;1906;-32
2022/04/30 05:01:55;;;;;;;;;;;;;;;26.19;27.12;101221.34;5067219;28;804;-31
2022/04/30 05:04:21;;;;;;;;;;;;;;;26.15;26.71;101231.63;5065663;28;1198;-32
2022/04/30 05:06:48;;;;;;;;;;;;;;;26.15;27.11;101222.69;5075766;28;1250;-28
2022/04/30 05:09:13;;;;;;;;;;;;;;;26.19;27.28;101207.00;5073631;28;1298;-28
2022/04/30 05:11:39;;;;;;;;;;;;;;;26.53;26.40;101224.94;5077168;28;1309;-30
2022/04/30 05:14:04;;;;;;;;;;;;;;;26.27;26.73;101215.13;5077327;28;1218;-32
2022/04/30 05:16:29;;;;;;;;;;;;;;;27.10;26.27;101234.06;5077007;28;1250;-32
2022/04/30 05:18:55;;;;;;;;;;;;;;;27.39;25.84;101231.84;5077229;28;1910;-34
2022/04/30 05:21:20;;;;;;;;;;;;;;;27.74;25.77;101223.47;5076475;28;1239;-30
2022/04/30 05:23:46;;;;;;;;;;;;;;;26.74;26.40;101224.44;5072363;28;1220;-30
2022/04/30 05:26:11;;;;;;;;;;;;;;;26.70;26.38;101219.56;5075051;28;1313;-33
2022/04/30 05:28:36;;;;;;;;;;;;;;;26.56;26.71;101207.59;5076387;28;1278;-29
2022/04/30 05:31:01;;;;;;;;;;;;;;;26.39;26.65;101221.06;5076827;28;1262;-31
2022/04/30 05:33:28;;;;;;;;;;;;;;;26.50;26.82;101219.91;5051227;28;1435;-30
2022/04/30 05:35:57;;;;;;;;;;;;;;;27.55;26.06;101217.41;5070496;28;1080;-29
2022/04/30 05:38:22;;;;;;;;;;;;;;;27.41;25.44;101215.44;5071402;28;1271;-33
2022/04/30 05:40:48;;;;;;;;;;;;;;;26.83;26.31;101206.41;5072316;28;1973;-31
2022/04/30 05:43:13;;;;;;;;;;;;;;;26.69;26.72;101212.50;5076165;28;1068;-35
2022/04/30 05:45:38;;;;;;;;;;;;;;;26.59;27.03;101224.28;5076154;28;1128;-31
2022/04/30 05:48:04;;;;;;;;;;;;;;;26.44;26.99;101216.03;5069986;28;1176;-34
2022/04/30 05:50:29;;;;;;;;;;;;;;;27.45;26.05;101203.25;5057146;28;817;-35
2022/04/30 05:52:55;;;;;;;;;;;;;;;27.60;25.22;101209.63;5065910;28;978;-35
2022/04/30 05:55:20;;;;;;;;;;;;;;;26.77;26.56;101204.38;5075812;28;1496;-34
2022/04/30 05:57:45;;;;;;;;;;;;;;;26.72;26.70;101220.25;5076773;28;1033;-33
2022/04/30 06:00:11;;;;;;;;;;;;;;;26.62;26.98;101212.31;5076177;28;1894;-31
2022/04/30 06:02:36;;;;;;;;;;;;;;;26.52;27.27;101204.38;5076301;28;775;-31
2022/04/30 06:05:02;;;;;;;;;;;;;;;27.48;26.36;101209.16;5075443;28;813;-34
2022/04/30 06:07:27;;;;;;;;;;;;;;;27.68;25.56;101202.47;5059201;28;830;-33
2022/04/30 06:09:52;;;;;;;;;;;;;;;26.94;26.92;101196.28;5067890;28;825;-33
2022/04/30 06:12:19;;;;;;;;;;;;;;;26.81;26.92;101203.03;5075790;28;1011;-32
2022/04/30 06:14:45;;;;;;;;;;;;;;;26.75;26.76;101195.59;5075991;28;1206;-29
2022/04/30 06:17:10;;;;;;;;;;;;;;;26.94;27.01;101196.28;5075744;28;801;-33
2022/04/30 06:19:36;;;;;;;;;;;;;;;26.77;26.98;101197.16;5059931;28;1913;-33
2022/04/30 06:22:01;;;;;;;;;;;;;;;26.50;27.15;101188.38;5056766;28;818;-31
2022/04/30 06:24:26;;;;;;;;;;;;;;;27.30;26.82;101193.19;5065604;28;925;-31
2022/04/30 06:26:52;;;;;;;;;;;;;;;27.66;26.17;101194.56;5075897;28;1027;-30
2022/04/30 06:29:18;;;;;;;;;;;;;;;27.39;26.13;101194.00;5075887;28;806;-33
2022/04/30 06:31:44;;;;;;;;;;;;;;;26.92;26.84;101191.03;5067211;28;840;-31
2022/04/30 06:34:09;;;;;;;;;;;;;;;26.92;26.87;101198.28;5056787;28;767;-31
2022/04/30 06:36:34;;;;;;;;;;;;;;;26.80;26.67;101195.94;5056592;28;898;-33
2022/04/30 06:39:00;;;;;;;;;;;;;;;27.48;26.54;101197.50;5062924;28;1985;-34
2022/04/30 06:41:25;;;;;;;;;;;;;;;27.34;25.77;101197.19;5056224;28;798;-33
2022/04/30 06:43:51;;;;;;;;;;;;;;;26.97;26.46;101196.78;5063576;28;841;-34
2022/04/30 06:46:16;;;;;;;;;;;;;;;26.93;26.54;101197.28;5056425;28;774;-33
2022/04/30 06:48:42;;;;;;;;;;;;;;;27.75;26.02;101201.66;5056056;28;1555;-31
2022/04/30 06:51:07;;;;;;;;;;;;;;;27.10;26.38;101209.78;5056555;28;923;-35
2022/04/30 06:59:00;;;;;;;;;;;;;;;26.83;26.57;101198.31;5056517;28;1972;-32
2022/04/30 07:01:43;;;;;;;;;;;;;;;26.76;26.53;101200.84;5056003;28;1171;-34
2022/04/30 07:04:09;;;;;;;;;;;;;;;26.82;26.55;101198.47;5056491;28;841;-31
2022/04/30 07:06:34;;;;;;;;;;;;;;;26.82;26.85;101202.03;5056265;28;774;-32
2022/04/30 07:09:03;;;;;;;;;;;;;;;27.01;26.39;101208.94;5060940;28;790;-34
2022/04/30 07:11:29;;;;;;;;;;;;;;;26.88;26.68;101209.44;5039854;28;818;-30
2022/04/30 07:13:54;;;;;;;;;;;;;;;26.87;26.55;101206.91;5056040;28;845;-32
2022/04/30 07:16:19;;;;;;;;;;;;;;;26.94;26.30;101209.78;5056526;28;763;-32
2022/04/30 07:18:45;;;;;;;;;;;;;;;26.94;26.48;101197.13;5055971;28;1959;-30
2022/04/30 07:21:10;;;;;;;;;;;;;;;26.94;26.37;101207.06;5062295;28;825;-32
2022/04/30 07:23:35;;;;;;;;;;;;;;;26.69;27.01;101205.25;5061644;28;860;-36
2022/04/30 07:26:01;;;;;;;;;;;;;;;26.80;26.87;101204.03;5059230;28;948;-35
2022/04/30 07:28:30;;;;;;;;;;;;;;;26.63;26.94;101200.50;5060925;28;1172;-31
2022/04/30 07:30:55;;;;;;;;;;;;;;;26.98;26.81;101200.31;5075770;28;1312;-30
2022/04/30 07:33:20;;;;;;;;;;;;;;;26.96;27.17;101196.94;5076757;28;1282;-33
2022/04/30 07:35:46;;;;;;;;;;;;;;;26.96;26.75;101199.66;5079103;28;1266;-32
2022/04/30 07:38:11;;;;;;;;;;;;;;;27.20;26.62;101195.22;5077998;28;1305;-33
2022/04/30 07:40:36;;;;;;;;;;;;;;;26.98;27.01;101197.59;5079177;28;1909;-32
2022/04/30 07:43:02;;;;;;;;;;;;;;;27.25;27.44;101201.81;5079121;28;844;-36
2022/04/30 07:45:27;;;;;;;;;;;;;;;27.60;27.40;101197.97;5078920;28;822;-33
2022/04/30 07:47:54;;;;;;;;;;;;;;;27.73;27.24;101205.53;5068962;28;836;-34
2022/04/30 07:50:21;;;;;;;;;;;;;;;27.78;26.97;101200.44;5060576;28;1128;-35
2022/04/30 07:52:47;;;;;;;;;;;;;;;27.86;26.67;101211.22;5077791;28;1356;-32
2022/04/30 07:55:13;;;;;;;;;;;;;;;27.80;27.17;101216.50;5074206;28;1030;-30
2022/04/30 07:57:38;;;;;;;;;;;;;;;27.83;27.31;101222.38;5078881;28;774;-31
2022/04/30 08:00:04;;;;;;;;;;;;;;;27.87;27.20;101217.47;5078242;28;1926;-30
2022/04/30 08:02:29;;;;;;;;;;;;;;;27.88;27.36;101219.16;5078587;28;848;-31
2022/04/30 08:04:55;;;;;;;;;;;;;;;27.85;27.37;101209.53;5078539;28;889;-30
2022/04/30 08:07:21;;;;;;;;;;;;;;;27.94;27.06;101220.31;5078639;28;907;-30
2022/04/30 08:09:46;;;;;;;;;;;;;;;27.94;27.19;101213.06;5069459;28;857;-33
2022/04/30 08:12:12;;;;;;;;;;;;;;;27.95;26.99;101212.03;5065801;28;914;-32
2022/04/30 08:14:37;;;;;;;;;;;;;;;27.97;27.21;101204.59;5060368;28;909;-32
2022/04/30 08:17:03;;;;;;;;;;;;;;;27.97;27.33;101209.16;5058926;28;853;-34
2022/04/30 08:19:28;;;;;;;;;;;;;;;27.97;26.99;101206.44;5058970;28;1913;-33
2022/04/30 08:21:53;;;;;;;;;;;;;;;27.94;27.14;101198.69;5059574;28;778;-34
2022/04/30 08:24:19;;;;;;;;;;;;;;;27.96;27.07;101199.34;5064841;28;1204;-34
2022/04/30 08:26:44;;;;;;;;;;;;;;;27.92;27.11;101198.88;5065496;28;824;-31
2022/04/30 08:29:09;;;;;;;;;;;;;;;27.95;27.29;101197.66;5059170;28;790;-32
2022/04/30 08:31:35;;;;;;;;;;;;;;;27.80;26.88;101197.56;5064368;28;989;-30
2022/04/30 08:34:00;;;;;;;;;;;;;;;27.87;27.32;101199.41;5078566;28;762;-33
2022/04/30 08:36:25;;;;;;;;;;;;;;;27.90;27.14;101198.19;5078493;28;827;-33
2022/04/30 08:38:50;;;;;;;;;;;;;;;27.92;27.43;101190.75;5075595;28;1906;-35
2022/04/30 08:41:16;;;;;;;;;;;;;;;27.88;27.57;101186.72;5063568;28;810;-34
2022/04/30 08:43:42;;;;;;;;;;;;;;;27.90;27.76;101195.50;5058451;28;766;-34
2022/04/30 08:46:07;;;;;;;;;;;;;;;27.90;27.81;101192.78;5041257;28;810;-30
2022/04/30 08:48:32;;;;;;;;;;;;;;;27.87;27.57;101191.28;5058612;28;885;-33
2022/04/30 08:50:58;;;;;;;;;;;;;;;27.90;27.59;101198.19;5064970;28;864;-32
2022/04/30 08:53:23;;;;;;;;;;;;;;;27.87;27.72;101196.69;5060110;28;1056;-33
2022/04/30 08:55:48;;;;;;;;;;;;;;;27.90;27.77;101205.44;5058308;28;871;-31
2022/04/30 08:58:15;;;;;;;;;;;;;;;27.88;27.74;101194.81;5058705;28;878;-32
2022/04/30 09:00:41;;;;;;;;;;;;;;;27.85;27.83;101190.63;5058239;28;1898;-34
2022/04/30 09:03:06;;;;;;;;;;;;;;;27.81;27.61;101191.16;5064996;28;773;-31
2022/04/30 09:05:32;;;;;;;;;;;;;;;27.77;27.92;101193.38;5058748;28;917;-32
2022/04/30 09:07:59;;;;;;;;;;;;;;;27.76;27.82;101186.25;5058478;28;830;-34
2022/04/30 09:10:25;;;;;;;;;;;;;;;27.73;27.61;101190.16;5065255;28;861;-31
2022/04/30 09:12:51;;;;;;;;;;;;;;;27.75;27.80;101184.59;5058070;28;758;-35
2022/04/30 09:15:17;;;;;;;;;;;;;;;27.72;28.00;101193.06;5060374;28;858;-36
2022/04/30 09:17:42;;;;;;;;;;;;;;;27.74;27.52;101196.44;5066277;28;957;-32
2022/04/30 09:20:08;;;;;;;;;;;;;;;27.73;27.58;101192.88;5057748;28;1894;-30
2022/04/30 09:22:36;;;;;;;;;;;;;;;27.69;27.83;101199.66;5058319;28;735;-35
2022/04/30 09:25:05;;;;;;;;;;;;;;;27.71;27.71;101203.00;5067811;28;914;-34
2022/04/30 09:27:31;;;;;;;;;;;;;;;27.67;27.65;101195.41;5077167;28;799;-33
2022/04/30 09:29:57;;;;;;;;;;;;;;;28.02;27.40;101195.09;5066550;28;832;-30
2022/04/30 09:32:23;;;;;;;;;;;;;;;27.97;27.65;101198.31;5057709;28;796;-33
2022/04/30 09:37:42;;;;;;;;;;;;;;;27.91;27.36;101191.75;5062838;28;1057;-34
2022/04/30 09:40:08;;;;;;;;;;;;;;;27.87;27.85;101195.84;5067765;28;1964;-33
2022/04/30 09:42:38;;;;;;;;;;;;;;;27.67;28.06;101192.69;5063841;28;905;-31
2022/04/30 09:45:04;;;;;;;;;;;;;;;28.00;27.34;101189.84;5070980;28;851;-32
2022/04/30 09:47:29;;;;;;;;;;;;;;;28.11;27.38;101189.44;5076506;28;907;-33
2022/04/30 09:55:22;;;;;;;;;;;;;;;27.97;27.62;101199.19;5064033;28;950;-32
2022/04/30 09:57:48;;;;;;;;;;;;;;;27.86;27.75;101197.69;5039673;28;739;-33
2022/04/30 10:00:13;;;;;;;;;;;;;;;27.74;27.75;101196.44;5056781;28;1903;-32
2022/04/30 10:02:39;;;;;;;;;;;;;;;27.95;27.77;101187.69;5057027;28;976;-33
2022/04/30 10:05:04;;;;;;;;;;;;;;;28.08;27.70;101197.06;5057103;28;814;-33
2022/04/30 10:07:33;;;;;;;;;;;;;;;28.20;27.26;101190.25;5067296;28;1383;-32
2022/04/30 10:10:19;;;;;;;;;;;;;;;28.17;27.01;101193.31;5069928;28;1027;-31
2022/04/30 10:12:52;;;;;;;;;;;;;;;28.22;26.91;101188.19;5056948;28;837;-34
2022/04/30 10:15:21;;;;;;;;;;;;;;;28.20;26.87;101190.25;5039036;28;806;-34
2022/04/30 10:17:50;;;;;;;;;;;;;;;28.29;27.09;101184.75;5039236;28;1568;-31
2022/04/30 10:20:22;;;;;;;;;;;;;;;28.34;26.89;101177.81;5045849;28;1969;-32
2022/04/30 10:22:51;;;;;;;;;;;;;;;28.31;26.84;101182.72;5070237;28;766;-31
2022/04/30 10:25:16;;;;;;;;;;;;;;;28.34;26.90;101177.81;5068127;28;1025;-32
2022/04/30 10:27:43;;;;;;;;;;;;;;;28.37;26.96;101179.31;5056832;28;759;-32
2022/04/30 10:30:24;;;;;;;;;;;;;;;28.36;26.81;101181.19;5056571;28;869;-32
2022/04/30 10:32:57;;;;;;;;;;;;;;;28.36;26.86;101173.06;5069355;28;850;-34
2022/04/30 10:35:35;;;;;;;;;;;;;;;28.29;26.95;101185.63;5056961;28;913;-34
2022/04/30 10:38:10;;;;;;;;;;;;;;;28.42;26.86;101181.47;5056799;28;984;-35
2022/04/30 10:40:49;;;;;;;;;;;;;;;28.35;26.88;101182.22;5056817;28;1959;-33
2022/04/30 10:43:35;;;;;;;;;;;;;;;28.41;26.62;101179.81;5056982;28;754;-33
2022/04/30 10:46:01;;;;;;;;;;;;;;;28.44;26.22;101169.47;5064522;28;1245;-33
2022/04/30 10:48:27;;;;;;;;;;;;;;;28.02;27.22;101182.41;5076116;28;783;-34
2022/04/30 10:51:21;;;;;;;;;;;;;;;28.34;26.87;101183.22;5075725;28;976;-35
2022/04/30 10:53:47;;;;;;;;;;;;;;;28.08;26.33;101181.69;5002545;28;1144;-35
2022/04/30 10:56:13;;;;;;;;;;;;;;;28.22;25.82;101184.66;5057546;28;853;-30
2022/04/30 10:58:39;;;;;;;;;;;;;;;28.34;26.70;101179.69;5068049;28;737;-35
2022/04/30 11:01:17;;;;;;;;;;;;;;;28.41;26.40;101169.81;5055948;28;1964;-30
2022/04/30 11:03:42;;;;;;;;;;;;;;;28.54;26.39;101174.63;5056740;28;866;-30
2022/04/30 11:06:11;;;;;;;;;;;;;;;28.59;26.03;101176.78;5056239;28;811;-34
2022/04/30 11:08:36;;;;;;;;;;;;;;;28.58;26.07;101173.22;5063704;28;891;-36
2022/04/30 11:11:02;;;;;;;;;;;;;;;28.53;26.19;101183.75;5073234;28;793;-35
2022/04/30 11:13:27;;;;;;;;;;;;;;;28.51;26.38;101183.09;5061747;28;865;-33
2022/04/30 11:15:52;;;;;;;;;;;;;;;28.46;26.29;101180.09;5060153;28;819;-30
2022/04/30 11:18:18;;;;;;;;;;;;;;;28.51;26.11;101174.16;5060482;28;870;-35
2022/04/30 11:20:44;;;;;;;;;;;;;;;28.55;26.25;101176.31;5060126;28;1909;-33
2022/04/30 11:23:19;;;;;;;;;;;;;;;28.55;25.94;101178.16;5065199;28;755;-35
2022/04/30 11:25:45;;;;;;;;;;;;;;;28.56;26.07;101185.28;5066827;28;858;-35
2022/04/30 11:28:10;;;;;;;;;;;;;;;28.50;25.98;101178.72;5042447;28;825;-32
2022/04/30 11:30:39;;;;;;;;;;;;;;;28.50;26.30;101183.28;5059536;28;846;-35
2022/04/30 11:33:05;;;;;;;;;;;;;;;28.47;26.10;101179.06;5060354;28;853;-32
2022/04/30 11:35:30;;;;;;;;;;;;;;;28.44;26.36;101176.75;5063929;28;870;-30
2022/04/30 11:37:55;;;;;;;;;;;;;;;28.51;26.43;101174.16;5068421;28;806;-36
2022/04/30 11:40:21;;;;;;;;;;;;;;;28.46;26.43;101169.28;5067084;28;1926;-37
2022/04/30 11:42:56;;;;;;;;;;;;;;;28.43;26.18;101169.63;5060197;28;810;-32
2022/04/30 11:45:31;;;;;;;;;;;;;;;28.42;26.42;101165.25;5059962;28;862;-32
2022/04/30 11:47:57;;;;;;;;;;;;;;;28.45;26.46;101163.03;5061140;28;771;-35
2022/04/30 11:50:22;;;;;;;;;;;;;;;28.44;26.46;101165.91;5067680;28;750;-36
2022/04/30 11:52:47;;;;;;;;;;;;;;;28.41;26.34;101167.09;5059667;28;1440;-32
2022/04/30 11:55:13;;;;;;;;;;;;;;;28.36;26.29;101166.84;5048782;28;1042;-33
2022/04/30 11:57:42;;;;;;;;;;;;;;;28.35;26.44;101173.25;5041814;28;875;-34
2022/04/30 12:00:07;;;;;;;;;;;;;;;28.38;26.58;101166.66;5059487;28;1894;-36
2022/04/30 12:02:33;;;;;;;;;;;;;;;28.29;26.29;101174.78;5074038;28;799;-32
2022/04/30 12:05:02;;;;;;;;;;;;;;;28.36;26.08;101164.13;5068316;28;1085;-31
2022/04/30 12:07:34;;;;;;;;;;;;;;;28.25;26.44;101165.34;5077113;28;1404;-30
2022/04/30 12:09:59;;;;;;;;;;;;;;;28.34;26.46;101166.97;5071923;28;808;-34
2022/04/30 12:12:24;;;;;;;;;;;;;;;28.32;26.44;101162.75;5076959;28;802;-35
2022/04/30 12:14:50;;;;;;;;;;;;;;;28.29;26.38;101163.97;5070580;28;1485;-31
2022/04/30 12:17:16;;;;;;;;;;;;;;;28.38;25.95;101162.06;5057418;28;879;-34
2022/04/30 12:25:17;;;;;;;;;;;;;;;27.86;27.10;101159.03;5071126;28;876;-33
2022/04/30 12:27:52;;;;;;;;;;;;;;;27.89;26.74;101155.97;5075209;28;872;-35
2022/04/30 12:30:18;;;;;;;;;;;;;;;27.84;27.15;101156.47;5057357;28;889;-32
2022/04/30 12:32:58;;;;;;;;;;;;;;;27.99;27.17;101147.63;5057542;28;814;-32
2022/04/30 12:35:25;;;;;;;;;;;;;;;27.98;26.71;101145.91;5058455;28;866;-32
2022/04/30 12:38:00;;;;;;;;;;;;;;;28.08;26.61;101146.53;5056918;28;814;-35
2022/04/30 12:40:25;;;;;;;;;;;;;;;28.06;26.52;101143.16;5071242;28;1969;-34
2022/04/30 12:42:51;;;;;;;;;;;;;;;28.04;26.38;101144.38;5057202;28;901;-30
2022/04/30 12:45:16;;;;;;;;;;;;;;;28.01;26.67;101145.56;5057322;28;834;-31
2022/04/30 12:47:42;;;;;;;;;;;;;;;28.08;26.85;101142.97;5057428;28;827;-31
2022/04/30 12:50:08;;;;;;;;;;;;;;;28.07;26.69;101134.03;5058028;28;881;-32
2022/04/30 12:52:33;;;;;;;;;;;;;;;28.03;26.61;101134.59;5065940;28;861;-32
2022/04/30 12:54:58;;;;;;;;;;;;;;;27.98;26.39;101135.94;5073625;28;837;-35
2022/04/30 12:57:24;;;;;;;;;;;;;;;27.94;26.60;101148.16;5056961;28;800;-31
2022/04/30 12:59:50;;;;;;;;;;;;;;;27.93;26.54;101142.91;5014228;28;1218490;-34
2022/04/30 13:02:15;;;;;;;;;;;;;;;27.95;26.71;101146.28;5058018;28;750;-30
2022/04/30 13:04:41;;;;;;;;;;;;;;;27.92;26.56;101143.94;5061458;28;849;-31
2022/04/30 13:07:06;;;;;;;;;;;;;;;27.90;26.66;101149.53;5062564;28;930;-30
2022/04/30 13:14:59;;;;;;;;;;;;;;;27.75;26.40;101144.88;5057412;28;667;-31
2022/04/30 13:17:24;;;;;;;;;;;;;;;27.81;26.68;101150.63;5043459;28;822;-34
2022/04/30 13:19:51;;;;;;;;;;;;;;;27.79;26.28;101148.09;5065546;28;1978;-34
2022/04/30 13:22:16;;;;;;;;;;;;;;;27.73;26.47;101148.78;5057412;28;810;-33
2022/04/30 13:24:41;;;;;;;;;;;;;;;27.73;26.55;101149.63;5064394;28;841;-35
2022/04/30 13:27:06;;;;;;;;;;;;;;;27.69;26.83;101147.47;5057973;28;723;-33
2022/04/30 13:29:32;;;;;;;;;;;;;;;27.62;26.93;101147.28;5071810;28;1129;-35
2022/04/30 13:31:57;;;;;;;;;;;;;;;27.98;26.19;101144.06;5066672;28;880;-30
2022/04/30 13:34:22;;;;;;;;;;;;;;;27.93;26.37;101142.91;5057312;28;759;-30